createdAt,value
2022-10-30T00:02:28.283Z,23.9
2022-10-30T00:07:46.430Z,23.9
2022-10-30T00:13:04.326Z,23.8
2022-10-30T00:18:22.548Z,23.9
2022-10-30T00:23:41.087Z,23.9
2022-10-30T00:28:59.263Z,23.8
2022-10-30T00:34:17.742Z,23.8
2022-10-30T00:39:36.544Z,23.8
2022-10-30T00:44:54.728Z,23.8
2022-10-30T00:50:12.985Z,23.8
2022-10-30T00:55:31.563Z,23.8
2022-10-30T01:00:50.025Z,23.8
2022-10-30T01:06:08.499Z,23.8
2022-10-30T01:11:26.988Z,23.9
2022-10-30T01:16:45.175Z,23.9
2022-10-30T01:22:03.931Z,23.9
2022-10-30T01:27:22.722Z,23.9
2022-10-30T01:32:40.613Z,23.9
2022-10-30T01:37:59.684Z,23.9
2022-10-30T01:43:18.516Z,23.9
2022-10-30T01:48:36.983Z,23.9
2022-10-30T01:53:55.469Z,23.9
2022-10-30T01:59:13.985Z,23.9
2022-10-30T02:04:32.451Z,23.9
2022-10-30T02:09:51.206Z,23.9
2022-10-30T02:15:10.011Z,23.9
2022-10-30T02:20:28.185Z,23.9
2022-10-30T02:25:46.958Z,23.9
2022-10-30T02:31:05.500Z,23.9
2022-10-30T02:36:23.669Z,23.8
2022-10-30T02:41:42.165Z,23.8
2022-10-30T02:47:00.687Z,23.9
2022-10-30T02:52:19.155Z,23.9
2022-10-30T02:57:37.367Z,23.9
2022-10-30T03:02:56.014Z,23.9
2022-10-30T03:08:14.477Z,23.9
2022-10-30T03:13:33.231Z,23.9
2022-10-30T03:18:51.465Z,23.9
2022-10-30T03:24:09.652Z,23.9
2022-10-30T03:29:28.407Z,23.8
2022-10-30T03:34:47.208Z,23.8
2022-10-30T03:40:05.396Z,23.8
2022-10-30T03:45:23.878Z,23.9
2022-10-30T03:50:42.117Z,23.9
2022-10-30T03:56:00.860Z,23.9
2022-10-30T04:01:19.455Z,23.8
2022-10-30T04:06:37.931Z,23.8
2022-10-30T04:11:56.096Z,23.8
2022-10-30T04:17:14.583Z,23.8
2022-10-30T04:22:33.117Z,23.8
2022-10-30T04:27:51.023Z,23.8
2022-10-30T04:33:09.796Z,23.8
2022-10-30T04:38:28.314Z,23.8
2022-10-30T04:43:46.777Z,23.8
2022-10-30T04:49:04.998Z,23.8
2022-10-30T04:54:23.498Z,23.8
2022-10-30T04:59:41.689Z,23.8
2022-10-30T05:05:00.177Z,23.8
2022-10-30T05:10:18.970Z,23.8
2022-10-30T05:15:37.711Z,23.8
2022-10-30T05:20:56.245Z,23.8
2022-10-30T05:26:15.036Z,23.8
2022-10-30T05:31:33.230Z,23.8
2022-10-30T05:36:51.427Z,23.8
2022-10-30T05:42:14.130Z,23.9
2022-10-30T05:47:32.619Z,23.9
2022-10-30T05:52:51.388Z,23.9
2022-10-30T05:58:09.614Z,24
2022-10-30T06:03:28.360Z,24.5
2022-10-30T06:08:47.005Z,24.4
2022-10-30T06:14:05.490Z,24.4
2022-10-30T06:19:23.942Z,24.3
2022-10-30T06:24:42.717Z,24.3
2022-10-30T06:30:01.254Z,24.3
2022-10-30T06:35:19.958Z,24.4
2022-10-30T06:40:44.262Z,24.4
2022-10-30T06:46:02.694Z,24.4
2022-10-30T06:51:21.257Z,24.4
2022-10-30T06:56:39.465Z,24.5
2022-10-30T07:02:01.773Z,24.5
2022-10-30T07:07:26.604Z,24.5
2022-10-30T07:12:44.811Z,24.5
2022-10-30T07:18:03.852Z,24.6
2022-10-30T07:23:22.158Z,24.6
2022-10-30T07:28:40.325Z,24.6
2022-10-30T07:33:59.150Z,24.7
2022-10-30T07:39:17.895Z,24.7
2022-10-30T07:44:36.648Z,24.7
2022-10-30T07:49:55.145Z,24.7
2022-10-30T07:55:13.605Z,24.8
2022-10-30T08:00:31.831Z,24.8
2022-10-30T08:05:50.317Z,24.8
2022-10-30T08:11:08.505Z,24.8
2022-10-30T08:16:27.263Z,24.8
2022-10-30T08:21:46.028Z,24.8
2022-10-30T08:27:04.481Z,24.9
2022-10-30T08:32:22.972Z,24.9
2022-10-30T08:37:41.495Z,25
2022-10-30T08:42:44.336Z,25
2022-10-30T08:48:03.192Z,25
2022-10-30T08:53:21.627Z,25
2022-10-30T08:58:40.350Z,25
2022-10-30T09:03:58.841Z,25
2022-10-30T09:09:17.629Z,25.1
2022-10-30T09:14:36.082Z,25.1
2022-10-30T09:19:54.583Z,25.1
2022-10-30T09:25:13.360Z,25.1
2022-10-30T09:30:31.815Z,25.1
2022-10-30T09:35:50.312Z,25.1
2022-10-30T09:41:08.868Z,25.1
2022-10-30T09:46:27.335Z,25.1
2022-10-30T09:51:46.116Z,25.1
2022-10-30T09:57:04.636Z,25.2
2022-10-30T10:02:23.536Z,25.2
2022-10-30T10:07:42.351Z,25.2
2022-10-30T10:13:01.952Z,25.2
2022-10-30T10:18:21.005Z,25.2
2022-10-30T10:23:39.473Z,25.2
2022-10-30T10:28:58.249Z,25.2
2022-10-30T10:34:16.432Z,25.2
2022-10-30T10:39:34.636Z,25.2
2022-10-30T10:44:53.151Z,25.2
2022-10-30T10:50:11.616Z,25.2
2022-10-30T10:55:30.463Z,25.2
2022-10-30T11:00:49.385Z,25.2
2022-10-30T11:06:07.562Z,25.1
2022-10-30T11:11:26.046Z,25.1
2022-10-30T11:16:44.581Z,25
2022-10-30T11:22:03.010Z,25.1
2022-10-30T11:27:21.474Z,25
2022-10-30T11:32:40.449Z,25
2022-10-30T11:37:59.298Z,25
2022-10-30T11:43:18.051Z,24.9
2022-10-30T11:48:37.788Z,24.8
2022-10-30T11:53:56.522Z,24.7
2022-10-30T11:59:15.005Z,24.6
2022-10-30T12:04:33.787Z,24.6
2022-10-30T12:09:51.973Z,24.6
2022-10-30T12:15:10.719Z,24.5
2022-10-30T12:20:29.519Z,24.5
2022-10-30T12:25:47.712Z,24.4
2022-10-30T12:31:05.984Z,24.3
2022-10-30T12:36:24.772Z,24.3
2022-10-30T12:41:43.240Z,24.3
2022-10-30T12:47:01.695Z,24.3
2022-10-30T12:52:19.929Z,24.3
2022-10-30T12:57:38.661Z,24.4
2022-10-30T13:02:58.292Z,24.4
2022-10-30T13:08:17.530Z,24.4
2022-10-30T13:13:36.278Z,24.5
2022-10-30T13:18:54.474Z,24.5
2022-10-30T13:24:13.002Z,24.5
2022-10-30T13:29:31.178Z,24.5
2022-10-30T13:34:49.931Z,24.5
2022-10-30T13:40:08.488Z,24.5
2022-10-30T13:45:11.613Z,24.5
2022-10-30T13:50:30.097Z,24.5
2022-10-30T13:55:48.346Z,24.5
2022-10-30T14:01:06.312Z,24.5
2022-10-30T14:06:24.863Z,24.5
2022-10-30T14:11:44.370Z,24.5
2022-10-30T14:17:02.825Z,24.6
2022-10-30T14:22:21.292Z,24.6
2022-10-30T14:27:40.084Z,24.6
2022-10-30T14:32:58.256Z,24.6
2022-10-30T14:38:16.753Z,24.6
2022-10-30T14:43:34.961Z,24.6
2022-10-30T14:48:53.037Z,24.6
2022-10-30T14:54:18.819Z,24.6
2022-10-30T14:59:37.046Z,24.5
2022-10-30T15:04:55.221Z,24.5
2022-10-30T15:10:13.705Z,24.5
2022-10-30T15:15:16.882Z,24.5
2022-10-30T15:20:35.049Z,24.5
2022-10-30T15:25:53.819Z,24.6
2022-10-30T15:31:12.114Z,24.6
2022-10-30T15:36:30.587Z,24.6
2022-10-30T15:41:48.783Z,24.6
2022-10-30T15:47:12.821Z,24.6
2022-10-30T15:52:31.290Z,24.6
2022-10-30T15:58:04.523Z,24.5
2022-10-30T16:03:23.154Z,24.5
2022-10-30T16:08:41.609Z,24.5
2022-10-30T16:14:00.375Z,24.5
2022-10-30T16:19:18.595Z,24.5
2022-10-30T16:24:37.051Z,24.5
2022-10-30T16:29:55.832Z,24.5
2022-10-30T16:35:14.353Z,24.4
2022-10-30T16:40:32.826Z,24.4
2022-10-30T16:45:51.313Z,24.4
2022-10-30T16:50:54.209Z,24.4
2022-10-30T16:56:12.686Z,24.4
2022-10-30T17:01:30.913Z,24.4
2022-10-30T17:11:41.605Z,24.3
2022-10-30T17:17:00.554Z,24.3
2022-10-30T17:22:19.034Z,24.3
2022-10-30T17:27:46.373Z,24.3
2022-10-30T17:33:05.486Z,24.3
2022-10-30T17:38:23.695Z,24.3
2022-10-30T17:43:41.927Z,24.2
2022-10-30T17:49:00.395Z,24.2
2022-10-30T17:54:18.864Z,24.3
2022-10-30T17:59:37.370Z,24.3
2022-10-30T18:04:55.814Z,24.3
2022-10-30T18:10:14.574Z,24.3
2022-10-30T18:15:32.806Z,24.3
2022-10-30T18:20:51.257Z,24.3
2022-10-30T18:26:09.742Z,24.3
2022-10-30T18:31:28.264Z,24.3
2022-10-30T18:36:46.431Z,24.3
2022-10-30T18:42:05.204Z,24.3
2022-10-30T18:47:23.984Z,24.3
2022-10-30T18:52:42.176Z,24.2
2022-10-30T18:58:01.306Z,24.2
2022-10-30T19:03:20.564Z,24.2
2022-10-30T19:08:39.037Z,24.1
2022-10-30T19:13:57.797Z,24.1
2022-10-30T19:19:16.023Z,24.1
2022-10-30T19:24:19.144Z,24.1
2022-10-30T19:29:37.623Z,24.1
2022-10-30T19:34:56.415Z,24.1
2022-10-30T19:40:14.868Z,24.1
2022-10-30T19:45:33.646Z,24.1
2022-10-30T19:50:52.423Z,24.1
2022-10-30T19:56:11.173Z,24.1
2022-10-30T20:01:29.792Z,24.1
2022-10-30T20:06:48.365Z,24.1
2022-10-30T20:12:06.555Z,24.1
2022-10-30T20:17:25.329Z,24.1
2022-10-30T20:22:43.557Z,24.1
2022-10-30T20:28:07.325Z,24.1
2022-10-30T20:33:25.808Z,24.2
2022-10-30T20:38:44.015Z,24.2
2022-10-30T20:44:02.486Z,24.2
2022-10-30T20:49:21.278Z,24.2
2022-10-30T20:54:40.067Z,24.2
2022-10-30T20:59:58.513Z,24.3
2022-10-30T21:05:44.165Z,24.3
2022-10-30T21:11:04.066Z,24.3
2022-10-30T21:16:22.521Z,24.3
2022-10-30T21:21:41.295Z,24.3
2022-10-30T21:26:59.529Z,24.3
2022-10-30T21:32:18.280Z,24.3
2022-10-30T21:37:37.051Z,24.3
2022-10-30T21:42:59.918Z,24.3
2022-10-30T21:48:22.770Z,24.3
2022-10-30T21:53:41.249Z,24.3
2022-10-30T21:58:59.773Z,24.3
2022-10-30T22:04:18.230Z,24.3
2022-10-30T22:09:36.722Z,24.3
2022-10-30T22:14:55.240Z,24.3
2022-10-30T22:20:13.979Z,24.3
2022-10-30T22:25:32.192Z,24.2
2022-10-30T22:30:50.712Z,24.2
2022-10-30T22:36:09.295Z,24.2
2022-10-30T22:41:32.744Z,24.2
2022-10-30T22:46:56.989Z,24.2
2022-10-30T22:52:15.451Z,24.2
2022-10-30T22:57:33.943Z,24.2
2022-10-30T23:02:52.546Z,24.2
2022-10-30T23:08:10.965Z,24.2
2022-10-30T23:13:29.448Z,24.2
2022-10-30T23:18:47.673Z,24.1
2022-10-30T23:24:05.859Z,24.1
2022-10-30T23:29:24.629Z,24.1
2022-10-30T23:34:43.418Z,24.2
2022-10-30T23:40:01.606Z,24.2
2022-10-30T23:45:20.100Z,24.2
2022-10-30T23:50:38.617Z,24.2
2022-10-30T23:55:56.805Z,24.2
